sensor_id;sensor_type;location;lat;lon;timestamp;pressure;altitude;pressure_sealevel;temperature;humidity
71795;BME280;59641;45.188;5.712;2023-04-28T00:01:58;99295.84;;;20.68;42.76
71795;BME280;59641;45.188;5.712;2023-04-28T00:04:23;99293.13;;;20.68;42.67
71795;BME280;59641;45.188;5.712;2023-04-28T00:06:49;99301.31;;;20.68;42.95
71795;BME280;59641;45.188;5.712;2023-04-28T00:09:15;99298.59;;;20.68;42.53
71795;BME280;59641;45.188;5.712;2023-04-28T00:11:43;99300.50;;;20.67;42.49
71795;BME280;59641;45.188;5.712;2023-04-28T00:14:08;99300.78;;;20.66;42.57
71795;BME280;59641;45.188;5.712;2023-04-28T00:16:34;99298.34;;;20.64;42.62
71795;BME280;59641;45.188;5.712;2023-04-28T00:19:00;99295.63;;;20.64;42.83
71795;BME280;59641;45.188;5.712;2023-04-28T00:21:25;99297.03;;;20.61;42.61
71795;BME280;59641;45.188;5.712;2023-04-28T00:23:52;99304.91;;;20.63;42.83
71795;BME280;59641;45.188;5.712;2023-04-28T00:26:18;99298.91;;;20.61;43.09
71795;BME280;59641;45.188;5.712;2023-04-28T00:28:43;99298.91;;;20.61;42.71
71795;BME280;59641;45.188;5.712;2023-04-28T00:31:10;99293.47;;;20.61;42.97
71795;BME280;59641;45.188;5.712;2023-04-28T00:33:37;99288.31;;;20.59;42.79
71795;BME280;59641;45.188;5.712;2023-04-28T00:36:03;99285.59;;;20.59;42.98
71795;BME280;59641;45.188;5.712;2023-04-28T00:38:28;99286.97;;;20.57;43.32
71795;BME280;59641;45.188;5.712;2023-04-28T00:40:54;99288.06;;;20.56;43.37
71795;BME280;59641;45.188;5.712;2023-04-28T00:43:19;99286.13;;;20.56;43.52
71795;BME280;59641;45.188;5.712;2023-04-28T00:45:45;99282.88;;;20.54;43.34
71795;BME280;59641;45.188;5.712;2023-04-28T00:48:12;99275.78;;;20.53;43.30
71795;BME280;59641;45.188;5.712;2023-04-28T00:50:38;99273.38;;;20.52;43.37
71795;BME280;59641;45.188;5.712;2023-04-28T00:53:03;99272.53;;;20.51;43.57
71795;BME280;59641;45.188;5.712;2023-04-28T00:55:30;99274.19;;;20.52;43.60
71795;BME280;59641;45.188;5.712;2023-04-28T00:57:58;99278.00;;;20.51;43.82
71795;BME280;59641;45.188;5.712;2023-04-28T01:00:24;99276.09;;;20.52;43.68
71795;BME280;59641;45.188;5.712;2023-04-28T01:02:52;99271.72;;;20.51;43.68
71795;BME280;59641;45.188;5.712;2023-04-28T01:05:19;99275.25;;;20.51;43.43
71795;BME280;59641;45.188;5.712;2023-04-28T01:07:45;99272.84;;;20.50;43.94
71795;BME280;59641;45.188;5.712;2023-04-28T01:10:10;99278.56;;;20.48;43.72
71795;BME280;59641;45.188;5.712;2023-04-28T01:12:35;99274.22;;;20.47;43.63
71795;BME280;59641;45.188;5.712;2023-04-28T01:15:01;99278.34;;;20.45;43.86
71795;BME280;59641;45.188;5.712;2023-04-28T01:17:27;99277.25;;;20.46;43.57
71795;BME280;59641;45.188;5.712;2023-04-28T01:19:52;99268.84;;;20.42;43.49
71795;BME280;59641;45.188;5.712;2023-04-28T01:22:18;99264.75;;;20.39;43.96
71795;BME280;59641;45.188;5.712;2023-04-28T01:24:43;99271.31;;;20.38;43.95
71795;BME280;59641;45.188;5.712;2023-04-28T01:27:09;99277.34;;;20.35;44.15
71795;BME280;59641;45.188;5.712;2023-04-28T01:29:35;99275.69;;;20.34;43.70
71795;BME280;59641;45.188;5.712;2023-04-28T01:32:00;99281.44;;;20.33;44.06
71795;BME280;59641;45.188;5.712;2023-04-28T01:34:26;99284.97;;;20.33;44.04
71795;BME280;59641;45.188;5.712;2023-04-28T01:36:51;99273.81;;;20.30;43.88
71795;BME280;59641;45.188;5.712;2023-04-28T01:39:16;99279.00;;;20.31;44.19
71795;BME280;59641;45.188;5.712;2023-04-28T01:41:42;99278.78;;;20.28;43.90
71795;BME280;59641;45.188;5.712;2023-04-28T01:44:07;99285.31;;;20.27;44.11
71795;BME280;59641;45.188;5.712;2023-04-28T01:46:33;99285.56;;;20.25;44.09
71795;BME280;59641;45.188;5.712;2023-04-28T01:48:59;99292.13;;;20.24;43.89
71795;BME280;59641;45.188;5.712;2023-04-28T01:51:24;99283.22;;;20.18;43.88
71795;BME280;59641;45.188;5.712;2023-04-28T01:53:51;99282.16;;;20.14;43.82
71795;BME280;59641;45.188;5.712;2023-04-28T01:56:16;99287.63;;;20.09;44.26
71795;BME280;59641;45.188;5.712;2023-04-28T01:58:41;99287.69;;;20.04;44.28
71795;BME280;59641;45.188;5.712;2023-04-28T02:01:07;99285.22;;;20.03;44.41
71795;BME280;59641;45.188;5.712;2023-04-28T02:03:32;99281.97;;;20.00;44.30
71795;BME280;59641;45.188;5.712;2023-04-28T02:05:58;99284.47;;;19.97;44.29
71795;BME280;59641;45.188;5.712;2023-04-28T02:08:23;99286.38;;;19.96;44.39
71795;BME280;59641;45.188;5.712;2023-04-28T02:10:48;99286.66;;;19.95;44.14
71795;BME280;59641;45.188;5.712;2023-04-28T02:13:14;99285.00;;;19.94;44.69
71795;BME280;59641;45.188;5.712;2023-04-28T02:15:41;99289.66;;;19.93;44.59
71795;BME280;59641;45.188;5.712;2023-04-28T02:18:06;99285.31;;;19.92;44.42
71795;BME280;59641;45.188;5.712;2023-04-28T02:20:32;99286.69;;;19.90;44.49
71795;BME280;59641;45.188;5.712;2023-04-28T02:22:57;99295.44;;;19.87;44.32
71795;BME280;59641;45.188;5.712;2023-04-28T02:25:22;99295.72;;;19.85;44.78
71795;BME280;59641;45.188;5.712;2023-04-28T02:27:48;99297.63;;;19.85;44.53
71795;BME280;59641;45.188;5.712;2023-04-28T02:30:13;99291.63;;;19.83;44.50
71795;BME280;59641;45.188;5.712;2023-04-28T02:32:39;99295.44;;;19.82;44.69
71795;BME280;59641;45.188;5.712;2023-04-28T02:35:04;99289.75;;;19.78;44.37
71795;BME280;59641;45.188;5.712;2023-04-28T02:37:30;99288.13;;;19.77;44.76
71795;BME280;59641;45.188;5.712;2023-04-28T02:39:55;99284.59;;;19.76;44.82
71795;BME280;59641;45.188;5.712;2023-04-28T02:42:21;99290.34;;;19.75;44.22
71795;BME280;59641;45.188;5.712;2023-04-28T02:44:46;99292.78;;;19.71;44.54
71795;BME280;59641;45.188;5.712;2023-04-28T02:47:11;99284.63;;;19.66;45.05
71795;BME280;59641;45.188;5.712;2023-04-28T02:49:37;99281.91;;;19.66;44.68
71795;BME280;59641;45.188;5.712;2023-04-28T02:52:02;99273.75;;;19.66;45.04
71795;BME280;59641;45.188;5.712;2023-04-28T02:54:27;99274.31;;;19.63;44.65
71795;BME280;59641;45.188;5.712;2023-04-28T02:56:56;99286.59;;;19.61;44.98
71795;BME280;59641;45.188;5.712;2023-04-28T02:59:23;99284.13;;;19.59;45.35
71795;BME280;59641;45.188;5.712;2023-04-28T03:01:49;99292.28;;;19.59;45.02
71795;BME280;59641;45.188;5.712;2023-04-28T03:04:15;99291.50;;;19.58;45.14
71795;BME280;59641;45.188;5.712;2023-04-28T03:06:40;99287.97;;;19.58;45.24
71795;BME280;59641;45.188;5.712;2023-04-28T03:09:06;99298.00;;;19.57;45.43
71795;BME280;59641;45.188;5.712;2023-04-28T03:11:32;99294.47;;;19.57;45.17
71795;BME280;59641;45.188;5.712;2023-04-28T03:13:57;99285.50;;;19.56;45.14
71795;BME280;59641;45.188;5.712;2023-04-28T03:16:22;99287.97;;;19.58;45.06
71795;BME280;59641;45.188;5.712;2023-04-28T03:18:48;99289.59;;;19.54;45.52
71795;BME280;59641;45.188;5.712;2023-04-28T03:21:13;99284.44;;;19.52;45.32
71795;BME280;59641;45.188;5.712;2023-04-28T03:23:39;99286.34;;;19.52;45.27
71795;BME280;59641;45.188;5.712;2023-04-28T03:26:04;99295.31;;;19.52;45.37
71795;BME280;59641;45.188;5.712;2023-04-28T03:28:29;99294.78;;;19.50;45.46
71795;BME280;59641;45.188;5.712;2023-04-28T03:30:55;99298.59;;;19.49;45.75
71795;BME280;59641;45.188;5.712;2023-04-28T03:33:20;99299.72;;;19.48;45.86
71795;BME280;59641;45.188;5.712;2023-04-28T03:35:46;99304.31;;;19.48;45.90
71795;BME280;59641;45.188;5.712;2023-04-28T03:38:11;99308.16;;;19.47;46.06
71795;BME280;59641;45.188;5.712;2023-04-28T03:40:37;99309.22;;;19.46;45.97
71795;BME280;59641;45.188;5.712;2023-04-28T03:43:02;99309.53;;;19.44;45.79
71795;BME280;59641;45.188;5.712;2023-04-28T03:45:28;99316.88;;;19.44;45.85
71795;BME280;59641;45.188;5.712;2023-04-28T03:47:53;99321.47;;;19.43;46.03
71795;BME280;59641;45.188;5.712;2023-04-28T03:50:19;99318.25;;;19.41;45.94
71795;BME280;59641;45.188;5.712;2023-04-28T03:52:44;99320.13;;;19.41;46.19
71795;BME280;59641;45.188;5.712;2023-04-28T03:55:09;99321.25;;;19.40;45.98
71795;BME280;59641;45.188;5.712;2023-04-28T03:57:35;99319.63;;;19.39;45.95
71795;BME280;59641;45.188;5.712;2023-04-28T04:00:00;99330.78;;;19.37;46.17
71795;BME280;59641;45.188;5.712;2023-04-28T04:02:26;99328.31;;;19.35;46.35
71795;BME280;59641;45.188;5.712;2023-04-28T04:04:51;99335.41;;;19.36;46.29
71795;BME280;59641;45.188;5.712;2023-04-28T04:07:16;99331.03;;;19.35;46.10
71795;BME280;59641;45.188;5.712;2023-04-28T04:09:42;99324.00;;;19.34;45.92
71795;BME280;59641;45.188;5.712;2023-04-28T04:12:07;99332.72;;;19.31;46.54
71795;BME280;59641;45.188;5.712;2023-04-28T04:14:32;99335.44;;;19.31;46.50
71795;BME280;59641;45.188;5.712;2023-04-28T04:16:58;99338.16;;;19.31;46.65
71795;BME280;59641;45.188;5.712;2023-04-28T04:19:23;99337.31;;;19.31;46.74
71795;BME280;59641;45.188;5.712;2023-04-28T04:21:51;99330.25;;;19.30;46.60
71795;BME280;59641;45.188;5.712;2023-04-28T04:24:16;99344.66;;;19.30;47.08
71795;BME280;59641;45.188;5.712;2023-04-28T04:26:42;99327.81;;;19.28;46.92
71795;BME280;59641;45.188;5.712;2023-04-28T04:29:07;99327.81;;;19.28;47.12
71795;BME280;59641;45.188;5.712;2023-04-28T04:31:32;99327.81;;;19.28;47.12
71795;BME280;59641;45.188;5.712;2023-04-28T04:33:58;99324.53;;;19.26;47.03
71795;BME280;59641;45.188;5.712;2023-04-28T04:36:23;99329.19;;;19.26;47.20
71795;BME280;59641;45.188;5.712;2023-04-28T04:38:48;99327.03;;;19.23;47.03
71795;BME280;59641;45.188;5.712;2023-04-28T04:41:14;99320.81;;;19.17;47.27
71795;BME280;59641;45.188;5.712;2023-04-28T04:43:39;99320.81;;;19.17;47.46
71795;BME280;59641;45.188;5.712;2023-04-28T04:46:05;99321.88;;;19.16;47.81
71795;BME280;59641;45.188;5.712;2023-04-28T04:48:31;99321.06;;;19.15;47.76
71795;BME280;59641;45.188;5.712;2023-04-28T04:50:56;99314.28;;;19.13;47.75
71795;BME280;59641;45.188;5.712;2023-04-28T04:53:21;99323.25;;;19.13;48.00
71795;BME280;59641;45.188;5.712;2023-04-28T04:55:47;99327.56;;;19.14;47.68
71795;BME280;59641;45.188;5.712;2023-04-28T04:58:12;99325.69;;;19.15;47.81
71795;BME280;59641;45.188;5.712;2023-04-28T05:00:38;99331.94;;;19.15;47.64
71795;BME280;59641;45.188;5.712;2023-04-28T05:03:04;99328.97;;;19.17;47.80
71795;BME280;59641;45.188;5.712;2023-04-28T05:05:30;99327.03;;;19.18;47.79
71795;BME280;59641;45.188;5.712;2023-04-28T05:07:56;99326.75;;;19.19;47.62
71795;BME280;59641;45.188;5.712;2023-04-28T05:10:23;99327.59;;;19.20;48.10
71795;BME280;59641;45.188;5.712;2023-04-28T05:12:48;99328.41;;;19.20;47.66
71795;BME280;59641;45.188;5.712;2023-04-28T05:15:14;99325.69;;;19.20;47.89
71795;BME280;59641;45.188;5.712;2023-04-28T05:17:40;99338.97;;;19.22;47.73
71795;BME280;59641;45.188;5.712;2023-04-28T05:20:05;99333.84;;;19.20;47.76
71795;BME280;59641;45.188;5.712;2023-04-28T05:22:31;99335.44;;;19.21;47.83
71795;BME280;59641;45.188;5.712;2023-04-28T05:24:57;99334.38;;;19.22;48.05
71795;BME280;59641;45.188;5.712;2023-04-28T05:27:22;99340.34;;;19.24;48.01
71795;BME280;59641;45.188;5.712;2023-04-28T05:29:47;99332.72;;;19.26;48.39
71795;BME280;59641;45.188;5.712;2023-04-28T05:32:13;99335.97;;;19.28;48.20
71795;BME280;59641;45.188;5.712;2023-04-28T05:34:38;99338.44;;;19.30;48.03
71795;BME280;59641;45.188;5.712;2023-04-28T05:37:04;99347.94;;;19.32;48.28
71795;BME280;59641;45.188;5.712;2023-04-28T05:39:29;99343.84;;;19.35;48.05
71795;BME280;59641;45.188;5.712;2023-04-28T05:41:55;99344.38;;;19.37;47.77
71795;BME280;59641;45.188;5.712;2023-04-28T05:44:20;99341.94;;;19.35;48.16
71795;BME280;59641;45.188;5.712;2023-04-28T05:46:45;99338.94;;;19.37;47.83
71795;BME280;59641;45.188;5.712;2023-04-28T05:49:11;99350.63;;;19.37;48.01
71795;BME280;59641;45.188;5.712;2023-04-28T05:51:36;99345.72;;;19.40;47.94
71795;BME280;59641;45.188;5.712;2023-04-28T05:54:02;99338.38;;;19.40;48.14
71795;BME280;59641;45.188;5.712;2023-04-28T05:56:28;99339.72;;;19.43;48.06
71795;BME280;59641;45.188;5.712;2023-04-28T05:58:53;99344.09;;;19.44;48.08
71795;BME280;59641;45.188;5.712;2023-04-28T06:01:21;99348.44;;;19.45;47.83
71795;BME280;59641;45.188;5.712;2023-04-28T06:03:46;99344.59;;;19.46;47.67
71795;BME280;59641;45.188;5.712;2023-04-28T06:06:12;99340.00;;;19.46;47.97
71795;BME280;59641;45.188;5.712;2023-04-28T06:08:37;99339.47;;;19.44;47.97
71795;BME280;59641;45.188;5.712;2023-04-28T06:11:03;99347.31;;;19.46;47.77
71795;BME280;59641;45.188;5.712;2023-04-28T06:13:28;99348.97;;;19.47;47.78
71795;BME280;59641;45.188;5.712;2023-04-28T06:15:54;99348.16;;;19.46;47.96
71795;BME280;59641;45.188;5.712;2023-04-28T06:18:20;99343.53;;;19.47;47.88
71795;BME280;59641;45.188;5.712;2023-04-28T06:20:45;99341.59;;;19.47;48.00
71795;BME280;59641;45.188;5.712;2023-04-28T06:23:11;99346.50;;;19.50;47.90
71795;BME280;59641;45.188;5.712;2023-04-28T06:25:36;99341.88;;;19.51;47.63
71795;BME280;59641;45.188;5.712;2023-04-28T06:28:02;99333.72;;;19.51;47.75
71795;BME280;59641;45.188;5.712;2023-04-28T06:30:28;99334.78;;;19.50;48.08
71795;BME280;59641;45.188;5.712;2023-04-28T06:32:53;99338.31;;;19.50;47.87
71795;BME280;59641;45.188;5.712;2023-04-28T06:35:20;99341.03;;;19.50;48.01
71795;BME280;59641;45.188;5.712;2023-04-28T06:37:46;99341.88;;;19.51;48.17
71795;BME280;59641;45.188;5.712;2023-04-28T06:40:11;99355.50;;;19.51;48.29
71795;BME280;59641;45.188;5.712;2023-04-28T06:42:36;99353.56;;;19.51;48.58
71795;BME280;59641;45.188;5.712;2023-04-28T06:45:02;99352.78;;;19.51;48.35
71795;BME280;59641;45.188;5.712;2023-04-28T06:47:27;99354.94;;;19.49;48.24
71795;BME280;59641;45.188;5.712;2023-04-28T06:49:53;99361.19;;;19.49;48.46
71795;BME280;59641;45.188;5.712;2023-04-28T06:52:18;99350.88;;;19.46;48.61
71795;BME280;59641;45.188;5.712;2023-04-28T06:54:46;99353.31;;;19.48;48.34
71795;BME280;59641;45.188;5.712;2023-04-28T06:57:12;99353.31;;;19.48;48.53
71795;BME280;59641;45.188;5.712;2023-04-28T06:59:37;99355.22;;;19.47;48.59
71795;BME280;59641;45.188;5.712;2023-04-28T07:02:02;99357.13;;;19.47;48.75
71795;BME280;59641;45.188;5.712;2023-04-28T07:04:28;99358.22;;;19.46;49.04
71795;BME280;59641;45.188;5.712;2023-04-28T07:06:54;99361.47;;;19.48;49.03
71795;BME280;59641;45.188;5.712;2023-04-28T07:09:19;99365.53;;;19.50;48.58
71795;BME280;59641;45.188;5.712;2023-04-28T07:11:44;99368.25;;;19.50;48.67
71795;BME280;59641;45.188;5.712;2023-04-28T07:14:10;99369.59;;;19.53;48.76
71795;BME280;59641;45.188;5.712;2023-04-28T07:16:35;99362.81;;;19.55;49.20
71795;BME280;59641;45.188;5.712;2023-04-28T07:19:01;99361.16;;;19.59;48.80
71795;BME280;59641;45.188;5.712;2023-04-28T07:21:26;99358.16;;;19.61;48.71
71795;BME280;59641;45.188;5.712;2023-04-28T07:23:53;99353.25;;;19.63;48.78
71795;BME280;59641;45.188;5.712;2023-04-28T07:26:21;99351.88;;;19.66;48.31
71795;BME280;59641;45.188;5.712;2023-04-28T07:28:47;99357.31;;;19.66;48.01
71795;BME280;59641;45.188;5.712;2023-04-28T07:31:12;99357.88;;;19.68;48.37
71795;BME280;59641;45.188;5.712;2023-04-28T07:33:38;99351.56;;;19.67;47.94
71795;BME280;59641;45.188;5.712;2023-04-28T07:36:03;99353.25;;;19.68;48.34
71795;BME280;59641;45.188;5.712;2023-04-28T07:38:29;99363.56;;;19.71;48.43
71795;BME280;59641;45.188;5.712;2023-04-28T07:40:54;99352.13;;;19.74;48.32
71795;BME280;59641;45.188;5.712;2023-04-28T07:43:19;99351.56;;;19.77;48.27
71795;BME280;59641;45.188;5.712;2023-04-28T07:45:45;99352.91;;;19.80;48.35
71795;BME280;59641;45.188;5.712;2023-04-28T07:48:16;99341.47;;;19.83;48.08
71795;BME280;59641;45.188;5.712;2023-04-28T07:50:41;99342.53;;;19.87;48.07
71795;BME280;59641;45.188;5.712;2023-04-28T07:53:07;99347.63;;;19.94;48.07
71795;BME280;59641;45.188;5.712;2023-04-28T07:55:33;99348.72;;;19.98;47.93
71795;BME280;59641;45.188;5.712;2023-04-28T07:57:58;99354.44;;;20.02;47.89
71795;BME280;59641;45.188;5.712;2023-04-28T08:00:24;99351.13;;;20.05;47.75
71795;BME280;59641;45.188;5.712;2023-04-28T08:02:50;99350.28;;;20.09;47.65
71795;BME280;59641;45.188;5.712;2023-04-28T08:05:15;99343.47;;;20.12;47.39
71795;BME280;59641;45.188;5.712;2023-04-28T08:07:41;99343.69;;;20.15;47.72
71795;BME280;59641;45.188;5.712;2023-04-28T08:10:08;99336.59;;;20.19;47.32
71795;BME280;59641;45.188;5.712;2023-04-28T08:12:34;99327.84;;;20.22;47.52
71795;BME280;59641;45.188;5.712;2023-04-28T08:14:59;99329.72;;;20.27;47.48
71795;BME280;59641;45.188;5.712;2023-04-28T08:17:25;99335.94;;;20.33;47.54
71795;BME280;59641;45.188;5.712;2023-04-28T08:19:51;99335.38;;;20.36;47.23
71795;BME280;59641;45.188;5.712;2023-04-28T08:22:17;99336.72;;;20.38;47.29
71795;BME280;59641;45.188;5.712;2023-04-28T08:24:42;99341.88;;;20.40;47.17
71795;BME280;59641;45.188;5.712;2023-04-28T08:27:08;99336.66;;;20.43;47.03
71795;BME280;59641;45.188;5.712;2023-04-28T08:29:34;99338.31;;;20.45;47.01
71795;BME280;59641;45.188;5.712;2023-04-28T08:31:59;99341.25;;;20.48;46.96
71795;BME280;59641;45.188;5.712;2023-04-28T08:34:28;99344.75;;;20.54;47.03
71795;BME280;59641;45.188;5.712;2023-04-28T08:36:54;99350.22;;;20.59;46.83
71795;BME280;59641;45.188;5.712;2023-04-28T08:39:19;99344.97;;;20.62;46.60
71795;BME280;59641;45.188;5.712;2023-04-28T08:41:47;99339.47;;;20.68;46.77
71795;BME280;59641;45.188;5.712;2023-04-28T08:44:12;99345.13;;;20.76;46.53
71795;BME280;59641;45.188;5.712;2023-04-28T08:46:41;99347.53;;;20.83;46.63
71795;BME280;59641;45.188;5.712;2023-04-28T08:49:13;99352.34;;;20.91;46.69
71795;BME280;59641;45.188;5.712;2023-04-28T08:51:44;99340.78;;;20.99;46.41
71795;BME280;59641;45.188;5.712;2023-04-28T08:54:14;99336.91;;;21.05;46.22
71795;BME280;59641;45.188;5.712;2023-04-28T08:56:41;99320.22;;;21.12;46.04
71795;BME280;59641;45.188;5.712;2023-04-28T08:59:10;99327.22;;;21.18;46.26
71795;BME280;59641;45.188;5.712;2023-04-28T09:01:35;99330.72;;;21.24;45.84
71795;BME280;59641;45.188;5.712;2023-04-28T09:04:01;99338.53;;;21.31;45.73
71795;BME280;59641;45.188;5.712;2023-04-28T09:06:31;99339.28;;;21.36;45.71
71795;BME280;59641;45.188;5.712;2023-04-28T09:09:26;99340.31;;;21.45;45.93
71795;BME280;59641;45.188;5.712;2023-04-28T09:14:24;99337.72;;;21.54;45.43
71795;BME280;59641;45.188;5.712;2023-04-28T09:16:51;99335.22;;;21.58;44.88
71795;BME280;59641;45.188;5.712;2023-04-28T09:19:16;99328.06;;;21.62;45.13
71795;BME280;59641;45.188;5.712;2023-04-28T09:22:00;99325.78;;;21.69;45.29
71795;BME280;59641;45.188;5.712;2023-04-28T09:26:51;99325.41;;;21.76;45.04
71795;BME280;59641;45.188;5.712;2023-04-28T09:29:16;99317.47;;;21.79;44.95
71795;BME280;59641;45.188;5.712;2023-04-28T09:31:42;99310.00;;;21.85;45.00
71795;BME280;59641;45.188;5.712;2023-04-28T09:34:08;99308.00;;;21.90;44.87
71795;BME280;59641;45.188;5.712;2023-04-28T09:36:34;99304.38;;;21.95;44.82
71795;BME280;59641;45.188;5.712;2023-04-28T09:39:00;99308.66;;;22.01;44.66
71795;BME280;59641;45.188;5.712;2023-04-28T09:41:36;99296.25;;;22.09;44.57
71795;BME280;59641;45.188;5.712;2023-04-28T09:44:16;99295.34;;;22.13;44.64
71795;BME280;59641;45.188;5.712;2023-04-28T09:46:46;99286.84;;;22.15;44.64
71795;BME280;59641;45.188;5.712;2023-04-28T09:49:12;99286.22;;;22.23;44.64
71795;BME280;59641;45.188;5.712;2023-04-28T09:51:39;99274.66;;;22.26;44.17
71795;BME280;59641;45.188;5.712;2023-04-28T09:54:05;99282.25;;;22.29;44.15
71795;BME280;59641;45.188;5.712;2023-04-28T09:56:32;99277.03;;;22.33;44.25
71795;BME280;59641;45.188;5.712;2023-04-28T09:59:00;99272.59;;;22.37;44.11
71795;BME280;59641;45.188;5.712;2023-04-28T10:01:39;99271.38;;;22.43;44.03
71795;BME280;59641;45.188;5.712;2023-04-28T10:04:05;99265.91;;;22.43;43.74
71795;BME280;59641;45.188;5.712;2023-04-28T10:06:34;99273.81;;;22.45;43.80
71795;BME280;59641;45.188;5.712;2023-04-28T10:09:04;99275.13;;;22.47;43.89
71795;BME280;59641;45.188;5.712;2023-04-28T10:11:29;99273.72;;;22.50;44.18
71795;BME280;59641;45.188;5.712;2023-04-28T10:13:55;99276.06;;;22.57;43.82
71795;BME280;59641;45.188;5.712;2023-04-28T10:16:21;99279.22;;;22.64;43.99
71795;BME280;59641;45.188;5.712;2023-04-28T10:18:48;99278.31;;;22.68;43.76
71795;BME280;59641;45.188;5.712;2023-04-28T10:21:17;99277.09;;;22.74;44.06
71795;BME280;59641;45.188;5.712;2023-04-28T10:24:06;99275.56;;;22.82;43.76
71795;BME280;59641;45.188;5.712;2023-04-28T10:27:02;99273.25;;;22.89;43.26
71795;BME280;59641;45.188;5.712;2023-04-28T10:29:29;99277.00;;;22.93;43.44
71795;BME280;59641;45.188;5.712;2023-04-28T10:32:13;99275.50;;;23.01;43.49
71795;BME280;59641;45.188;5.712;2023-04-28T10:34:39;99260.41;;;23.04;43.44
71795;BME280;59641;45.188;5.712;2023-04-28T10:37:04;99261.41;;;23.08;43.28
71795;BME280;59641;45.188;5.712;2023-04-28T10:39:29;99263.53;;;23.11;43.40
71795;BME280;59641;45.188;5.712;2023-04-28T10:41:55;99246.81;;;23.12;43.19
71795;BME280;59641;45.188;5.712;2023-04-28T10:47:06;99239.13;;;23.14;43.49
71795;BME280;59641;45.188;5.712;2023-04-28T10:55:29;99227.72;;;23.35;43.39
71795;BME280;59641;45.188;5.712;2023-04-28T11:00:44;99219.28;;;23.45;43.34
71795;BME280;59641;45.188;5.712;2023-04-28T11:08:43;99214.53;;;23.73;43.03
71795;BME280;59641;45.188;5.712;2023-04-28T11:13:34;99213.34;;;23.88;42.85
71795;BME280;59641;45.188;5.712;2023-04-28T11:16:03;99206.00;;;23.97;42.87
71795;BME280;59641;45.188;5.712;2023-04-28T11:18:54;99207.50;;;24.03;42.49
71795;BME280;59641;45.188;5.712;2023-04-28T11:21:21;99192.53;;;24.10;42.56
71795;BME280;59641;45.188;5.712;2023-04-28T11:23:48;99197.88;;;24.15;42.47
71795;BME280;59641;45.188;5.712;2023-04-28T11:26:13;99188.25;;;24.17;42.67
71795;BME280;59641;45.188;5.712;2023-04-28T11:28:55;99179.88;;;24.22;42.44
71795;BME280;59641;45.188;5.712;2023-04-28T11:31:22;99180.84;;;24.27;42.13
71795;BME280;59641;45.188;5.712;2023-04-28T11:34:05;99171.38;;;24.33;42.24
71795;BME280;59641;45.188;5.712;2023-04-28T11:36:35;99158.16;;;24.35;42.18
71795;BME280;59641;45.188;5.712;2023-04-28T11:39:06;99151.72;;;24.39;42.37
71795;BME280;59641;45.188;5.712;2023-04-28T11:41:50;99153.72;;;24.48;42.02
71795;BME280;59641;45.188;5.712;2023-04-28T11:44:21;99152.97;;;24.56;42.19
71795;BME280;59641;45.188;5.712;2023-04-28T11:46:56;99147.81;;;24.63;41.81
71795;BME280;59641;45.188;5.712;2023-04-28T11:49:31;99147.16;;;24.66;42.09
71795;BME280;59641;45.188;5.712;2023-04-28T11:52:04;99138.78;;;24.71;41.92
71795;BME280;59641;45.188;5.712;2023-04-28T11:54:30;99138.81;;;24.80;42.10
71795;BME280;59641;45.188;5.712;2023-04-28T11:56:57;99133.66;;;24.87;41.64
71795;BME280;59641;45.188;5.712;2023-04-28T11:59:24;99119.78;;;24.92;41.59
71795;BME280;59641;45.188;5.712;2023-04-28T12:02:03;99117.03;;;25.01;41.80
71795;BME280;59641;45.188;5.712;2023-04-28T12:04:38;99124.31;;;25.05;41.18
71795;BME280;59641;45.188;5.712;2023-04-28T12:07:15;99124.47;;;25.09;41.59
71795;BME280;59641;45.188;5.712;2023-04-28T12:12:29;99116.72;;;25.11;41.62
71795;BME280;59641;45.188;5.712;2023-04-28T12:15:02;99114.44;;;25.13;41.41
71795;BME280;59641;45.188;5.712;2023-04-28T12:17:38;99110.91;;;25.13;41.71
71795;BME280;59641;45.188;5.712;2023-04-28T12:20:10;99114.63;;;25.17;41.21
71795;BME280;59641;45.188;5.712;2023-04-28T12:22:44;99110.25;;;25.16;41.12
71795;BME280;59641;45.188;5.712;2023-04-28T12:25:12;99103.97;;;25.15;41.23
71795;BME280;59641;45.188;5.712;2023-04-28T12:27:39;99109.97;;;25.17;41.30
71795;BME280;59641;45.188;5.712;2023-04-28T12:32:46;99109.00;;;25.22;41.15
71795;BME280;59641;45.188;5.712;2023-04-28T12:35:11;99102.72;;;25.21;41.04
71795;BME280;59641;45.188;5.712;2023-04-28T12:37:37;99102.38;;;25.23;41.43
71795;BME280;59641;45.188;5.712;2023-04-28T12:40:05;99103.66;;;25.25;41.33
71795;BME280;59641;45.188;5.712;2023-04-28T12:42:30;99109.16;;;25.25;41.18
71795;BME280;59641;45.188;5.712;2023-04-28T12:44:56;99109.63;;;25.27;41.26
71795;BME280;59641;45.188;5.712;2023-04-28T12:47:21;99105.59;;;25.25;41.23
71795;BME280;59641;45.188;5.712;2023-04-28T12:49:47;99108.34;;;25.25;41.11
71795;BME280;59641;45.188;5.712;2023-04-28T12:52:14;99106.25;;;25.22;41.12
71795;BME280;59641;45.188;5.712;2023-04-28T12:54:40;99101.56;;;25.22;41.39
71795;BME280;59641;45.188;5.712;2023-04-28T12:57:14;99099.63;;;25.23;41.44
71795;BME280;59641;45.188;5.712;2023-04-28T12:59:40;99100.44;;;25.23;41.62
71795;BME280;59641;45.188;5.712;2023-04-28T13:02:06;99091.88;;;25.25;41.52
71795;BME280;59641;45.188;5.712;2023-04-28T13:04:31;99095.75;;;25.24;41.58
71795;BME280;59641;45.188;5.712;2023-04-28T13:06:57;99094.78;;;25.28;41.80
71795;BME280;59641;45.188;5.712;2023-04-28T13:09:23;99090.25;;;25.33;41.83
71795;BME280;59641;45.188;5.712;2023-04-28T13:11:49;99087.34;;;25.38;41.63
71795;BME280;59641;45.188;5.712;2023-04-28T13:14:14;99084.44;;;25.43;41.67
71795;BME280;59641;45.188;5.712;2023-04-28T13:16:40;99082.31;;;25.48;41.53
71795;BME280;59641;45.188;5.712;2023-04-28T13:19:05;99083.78;;;25.55;41.29
71795;BME280;59641;45.188;5.712;2023-04-28T13:21:35;99083.59;;;25.60;41.48
71795;BME280;59641;45.188;5.712;2023-04-28T13:24:02;99085.38;;;25.64;41.30
71795;BME280;59641;45.188;5.712;2023-04-28T13:26:28;99084.72;;;25.67;41.04
71795;BME280;59641;45.188;5.712;2023-04-28T13:28:54;99086.31;;;25.68;40.90